Time;durP1;ratioP1;P1;durP2;ratioP2;P2;SDS_P1;SDS_P2;PMS_P1;PMS_P2;Temp;Humidity;BMP_temperature;BMP_pressure;BME280_temperature;BME280_humidity;BME280_pressure;Samples;Min_cycle;Max_cycle;Signal;HPM_P1;HPM_P2
2023/01/29 00:02:20;;;;;;;6.40;5.60;;;2.10;69.80;;;;;;5006004;28;20689;-87
2023/01/29 00:04:49;;;;;;;6.13;5.53;;;2.10;68.20;;;;;;5023399;28;20666;-86
2023/01/29 00:07:18;;;;;;;6.10;5.60;;;2.10;68.20;;;;;;5023481;28;20875;-86
2023/01/29 00:09:43;;;;;;;6.30;5.70;;;2.00;68.90;;;;;;5022217;28;20327;-87
2023/01/29 00:12:09;;;;;;;6.40;5.80;;;1.90;70.40;;;;;;5032340;28;20721;-85
2023/01/29 00:14:35;;;;;;;6.17;5.50;;;1.90;70.20;;;;;;5023743;28;20288;-86
2023/01/29 00:17:00;;;;;;;7.20;6.23;;;1.90;70.30;;;;;;5020718;28;20178;-86
2023/01/29 00:19:26;;;;;;;6.37;5.37;;;1.90;70.40;;;;;;5020950;28;20194;-86
2023/01/29 00:21:52;;;;;;;6.13;5.53;;;1.80;68.80;;;;;;5019665;28;20216;-87
2023/01/29 00:24:17;;;;;;;6.77;5.87;;;1.80;70.90;;;;;;5022051;28;20181;-87
2023/01/29 00:26:43;;;;;;;6.27;5.67;;;1.90;72.00;;;;;;5024025;28;20184;-87
2023/01/29 00:29:09;;;;;;;6.30;5.70;;;1.90;72.30;;;;;;5040663;28;20249;-86
2023/01/29 00:31:34;;;;;;;6.77;6.13;;;2.00;71.40;;;;;;5041684;28;20189;-88
2023/01/29 00:34:00;;;;;;;6.70;6.10;;;2.00;72.00;;;;;;5042996;28;20184;-86
2023/01/29 00:36:26;;;;;;;8.30;6.80;;;2.00;73.50;;;;;;5041860;28;20269;-87
2023/01/29 00:39:01;;;;;;;7.93;6.67;;;2.10;73.00;;;;;;5023338;28;20270;-87
2023/01/29 00:47:01;;;;;;;7.37;6.67;;;1.90;71.50;;;;;;5040924;28;20168;-87
2023/01/29 00:49:29;;;;;;;7.90;6.73;;;1.90;70.80;;;;;;5041488;28;20204;-84
2023/01/29 00:54:38;;;;;;;7.37;6.57;;;1.80;70.40;;;;;;5023319;28;20286;-85
2023/01/29 00:57:04;;;;;;;7.40;6.53;;;1.80;71.90;;;;;;5024744;28;20178;-88
2023/01/29 00:59:30;;;;;;;7.87;6.93;;;1.90;70.30;;;;;;5023103;28;20244;-85
2023/01/29 01:04:40;;;;;;;6.97;6.27;;;2.00;72.20;;;;;;5014207;28;20179;-86
2023/01/29 01:07:06;;;;;;;8.33;6.60;;;2.10;73.60;;;;;;5022618;28;20241;-86
2023/01/29 01:12:18;;;;;;;6.93;5.87;;;2.20;72.10;;;;;;5020295;28;20242;-86
2023/01/29 01:14:43;;;;;;;7.57;6.83;;;2.20;70.70;;;;;;5019141;28;20284;-87
2023/01/29 01:17:09;;;;;;;7.30;6.60;;;2.20;70.60;;;;;;5024264;28;20240;-87
2023/01/29 01:19:35;;;;;;;7.40;6.60;;;2.30;69.70;;;;;;5037637;28;20701;-86
2023/01/29 01:22:00;;;;;;;7.77;7.00;;;2.20;68.70;;;;;;5023801;28;20209;-86
2023/01/29 01:24:26;;;;;;;7.13;6.47;;;2.10;68.80;;;;;;5026934;28;20191;-87
2023/01/29 01:26:52;;;;;;;7.13;6.43;;;2.10;69.60;;;;;;5023282;28;20188;-87
2023/01/29 01:29:17;;;;;;;8.50;7.60;;;2.10;71.40;;;;;;5040091;28;20201;-87
2023/01/29 01:31:44;;;;;;;7.17;6.47;;;2.10;70.50;;;;;;5039587;28;20278;-86
2023/01/29 01:34:10;;;;;;;6.53;5.93;;;2.10;69.10;;;;;;5020417;28;20200;-87
2023/01/29 01:36:35;;;;;;;6.33;5.73;;;2.00;68.90;;;;;;5019890;28;20185;-87
2023/01/29 01:39:01;;;;;;;7.20;6.30;;;2.00;69.20;;;;;;5019619;28;20208;-87
2023/01/29 01:41:28;;;;;;;7.50;6.33;;;1.90;69.10;;;;;;5019301;28;20285;-87
2023/01/29 01:44:01;;;;;;;6.87;6.17;;;1.80;70.00;;;;;;5002544;28;20185;-86
2023/01/29 01:46:32;;;;;;;6.97;5.90;;;1.80;71.40;;;;;;5019947;28;20214;-86
2023/01/29 01:49:14;;;;;;;7.20;6.07;;;1.70;70.90;;;;;;5022000;28;20194;-87
2023/01/29 01:51:45;;;;;;;6.77;6.07;;;1.50;70.80;;;;;;5029221;28;20188;-88
2023/01/29 01:54:22;;;;;;;6.23;5.67;;;1.50;72.80;;;;;;5041672;28;20237;-86
2023/01/29 01:56:54;;;;;;;6.27;5.67;;;1.60;74.40;;;;;;5042147;28;20234;-87
2023/01/29 01:59:21;;;;;;;6.97;6.07;;;1.60;73.50;;;;;;5026809;28;20221;-85
2023/01/29 02:01:52;;;;;;;6.30;5.70;;;1.70;74.40;;;;;;5020316;28;20213;-87
2023/01/29 02:10:21;;;;;;;5.93;5.37;;;1.90;73.10;;;;;;5019197;28;20205;-87
2023/01/29 02:12:47;;;;;;;7.60;5.90;;;2.00;71.40;;;;;;5019591;28;20245;-87
2023/01/29 02:15:13;;;;;;;6.80;5.90;;;2.00;70.40;;;;;;5018962;28;20212;-86
2023/01/29 02:17:39;;;;;;;6.00;5.50;;;2.00;70.00;;;;;;5018457;28;20267;-85
2023/01/29 02:20:25;;;;;;;5.87;5.37;;;2.00;71.90;;;;;;5018312;28;20221;-86
2023/01/29 02:23:06;;;;;;;5.93;5.50;;;2.00;72.70;;;;;;5029057;28;20184;-86
2023/01/29 02:25:49;;;;;;;8.60;6.40;;;2.00;70.40;;;;;;5040164;28;20185;-87
2023/01/29 02:28:23;;;;;;;6.97;5.60;;;2.00;70.50;;;;;;5023717;28;20193;-86
2023/01/29 02:31:19;;;;;;;6.83;6.13;;;1.90;69.70;;;;;;5027881;28;20392;-87
2023/01/29 02:33:55;;;;;;;7.23;5.97;;;1.90;70.20;;;;;;5023012;28;20181;-87
2023/01/29 02:36:32;;;;;;;6.20;5.60;;;1.90;70.70;;;;;;5021681;28;20150;-88
2023/01/29 02:39:10;;;;;;;6.30;5.37;;;1.80;73.00;;;;;;5022704;28;20750;-86
2023/01/29 02:41:54;;;;;;;5.80;5.30;;;1.90;72.40;;;;;;5022352;28;20212;-87
2023/01/29 02:44:23;;;;;;;6.17;5.57;;;1.80;69.30;;;;;;5023402;28;20205;-86
2023/01/29 02:46:58;;;;;;;5.70;5.20;;;1.80;71.40;;;;;;5024012;28;20742;-86
2023/01/29 02:49:42;;;;;;;6.50;5.90;;;1.70;72.70;;;;;;5024257;28;20197;-86
2023/01/29 02:52:16;;;;;;;6.57;5.97;;;1.60;72.90;;;;;;5024056;28;20170;-87
2023/01/29 02:55:01;;;;;;;7.47;5.90;;;1.60;75.20;;;;;;5020435;28;20194;-86
2023/01/29 02:57:33;;;;;;;6.30;5.70;;;1.60;75.60;;;;;;5027164;28;20193;-87
2023/01/29 03:00:18;;;;;;;6.03;5.50;;;1.70;77.00;;;;;;5042532;28;20216;-87
2023/01/29 03:03:05;;;;;;;6.80;6.20;;;1.80;76.80;;;;;;5042832;28;20231;-86
2023/01/29 03:05:42;;;;;;;6.53;5.90;;;1.80;74.20;;;;;;5040924;28;20566;-86
2023/01/29 03:08:10;;;;;;;6.50;5.60;;;1.80;74.70;;;;;;5039701;28;20608;-86
2023/01/29 03:10:42;;;;;;;6.63;6.03;;;2.00;74.20;;;;;;5022963;28;20721;-88
2023/01/29 03:13:25;;;;;;;6.80;6.03;;;2.00;73.90;;;;;;5028960;28;20216;-86
2023/01/29 03:16:20;;;;;;;6.20;5.70;;;2.10;71.70;;;;;;5020434;28;20165;-87
2023/01/29 03:18:55;;;;;;;6.27;5.67;;;2.10;72.70;;;;;;5022305;28;20209;-86
2023/01/29 03:33:23;;;;;;;6.80;6.10;;;1.90;73.90;;;;;;5023883;28;20165;-87
2023/01/29 03:36:04;;;;;;;7.00;6.00;;;1.90;76.00;;;;;;5023746;28;20555;-86
2023/01/29 03:38:31;;;;;;;8.00;6.20;;;2.00;76.40;;;;;;5023440;28;20235;-87
2023/01/29 03:41:12;;;;;;;6.60;6.00;;;1.90;75.20;;;;;;5022145;28;20652;-87
2023/01/29 03:43:46;;;;;;;6.70;6.10;;;1.90;73.60;;;;;;5023703;28;20947;-86
2023/01/29 03:46:30;;;;;;;5.90;5.40;;;1.90;74.70;;;;;;5024311;28;20189;-87
2023/01/29 03:49:09;;;;;;;7.93;6.10;;;1.80;73.90;;;;;;5023786;28;20212;-86
2023/01/29 03:51:38;;;;;;;7.57;6.30;;;1.90;74.50;;;;;;5005386;28;20194;-87
2023/01/29 03:54:07;;;;;;;6.80;5.93;;;1.80;74.90;;;;;;5023282;28;20197;-85
2023/01/29 03:56:43;;;;;;;9.37;6.33;;;1.90;74.80;;;;;;5006155;28;20181;-86
2023/01/29 03:59:17;;;;;;;7.13;6.43;;;1.90;74.70;;;;;;5023539;28;20224;-85
2023/01/29 04:01:47;;;;;;;6.27;5.67;;;1.80;74.00;;;;;;5022675;28;20701;-86
2023/01/29 04:04:34;;;;;;;8.20;5.50;;;1.70;74.30;;;;;;5040328;28;20831;-86
2023/01/29 04:07:05;;;;;;;7.07;5.93;;;1.70;74.30;;;;;;5025803;28;20268;-86
2023/01/29 04:09:50;;;;;;;6.00;5.40;;;1.50;75.60;;;;;;5042279;28;20207;-86
2023/01/29 04:12:22;;;;;;;7.37;6.13;;;1.50;76.10;;;;;;5024328;28;20185;-88
2023/01/29 04:14:50;;;;;;;6.93;6.23;;;1.40;75.50;;;;;;5042108;28;20226;-86
2023/01/29 04:17:23;;;;;;;7.80;6.53;;;1.40;74.50;;;;;;5028882;28;20210;-86
2023/01/29 04:19:49;;;;;;;6.70;6.10;;;1.40;73.90;;;;;;5044754;28;20205;-87
2023/01/29 04:22:25;;;;;;;6.83;6.13;;;1.20;75.10;;;;;;5036744;28;20208;-86
2023/01/29 04:24:51;;;;;;;6.30;5.67;;;1.30;77.80;;;;;;5041190;28;20188;-86
2023/01/29 04:27:28;;;;;;;7.53;6.07;;;1.30;78.30;;;;;;5023348;28;20235;-86
2023/01/29 04:30:53;;;;;;;7.47;5.90;;;1.50;78.30;;;;;;5040732;28;20205;-87
2023/01/29 04:33:34;;;;;;;7.67;5.97;;;1.60;76.20;;;;;;4946952;29;20226;-86
2023/01/29 04:36:41;;;;;;;7.10;5.60;;;1.50;77.00;;;;;;4957862;29;20222;-86
2023/01/29 04:39:18;;;;;;;7.10;5.73;;;1.60;76.80;;;;;;5008963;28;20216;-86
2023/01/29 04:41:54;;;;;;;7.67;6.53;;;1.60;77.70;;;;;;5040952;28;20196;-89
2023/01/29 04:44:41;;;;;;;8.07;7.17;;;1.60;76.80;;;;;;5040623;28;20203;-86
2023/01/29 04:47:44;;;;;;;8.37;7.40;;;1.60;75.00;;;;;;5014010;28;20201;-86
2023/01/29 04:50:27;;;;;;;7.97;7.27;;;1.60;76.60;;;;;;5015306;28;20292;-87
2023/01/29 04:53:10;;;;;;;7.30;6.57;;;1.60;77.20;;;;;;5030667;28;20177;-86
2023/01/29 04:55:45;;;;;;;8.97;6.67;;;1.70;75.00;;;;;;5039882;28;20169;-86
2023/01/29 04:58:32;;;;;;;7.27;6.53;;;1.70;74.30;;;;;;5020877;28;20176;-86
2023/01/29 05:00:59;;;;;;;7.37;6.57;;;1.70;73.00;;;;;;5038769;28;20216;-87
2023/01/29 05:03:26;;;;;;;7.03;6.33;;;1.50;74.20;;;;;;5038604;28;20289;-85
2023/01/29 05:05:54;;;;;;;6.70;6.10;;;1.50;77.30;;;;;;5038151;28;20188;-86
2023/01/29 05:08:23;;;;;;;7.53;6.27;;;1.40;77.30;;;;;;5037035;28;20223;-86
2023/01/29 05:10:52;;;;;;;6.93;6.23;;;1.20;78.60;;;;;;5009237;28;20197;-86
2023/01/29 05:13:20;;;;;;;7.97;6.33;;;1.20;81.00;;;;;;5013102;28;20180;-86
2023/01/29 05:16:12;;;;;;;6.37;5.77;;;1.10;81.00;;;;;;5039284;28;20192;-86
2023/01/29 05:18:37;;;;;;;7.50;6.77;;;1.10;82.40;;;;;;5039663;28;20209;-87
2023/01/29 05:21:07;;;;;;;7.33;6.43;;;1.20;79.80;;;;;;5032765;28;20246;-86
2023/01/29 05:23:32;;;;;;;7.70;6.90;;;1.20;79.50;;;;;;5003221;28;20182;-86
2023/01/29 05:25:58;;;;;;;7.93;7.13;;;1.40;78.40;;;;;;5047276;28;20181;-87
2023/01/29 05:28:24;;;;;;;8.23;6.83;;;1.40;78.10;;;;;;5051430;28;20193;-86
2023/01/29 05:30:53;;;;;;;7.80;6.80;;;1.30;77.20;;;;;;5033866;28;20203;-86
2023/01/29 05:33:30;;;;;;;10.43;9.33;;;1.40;78.20;;;;;;5049187;28;20169;-87
2023/01/29 05:35:57;;;;;;;8.23;7.30;;;1.60;76.50;;;;;;5018510;28;20187;-85
2023/01/29 05:38:24;;;;;;;8.10;7.40;;;1.60;75.20;;;;;;5037203;28;20682;-85
2023/01/29 05:40:49;;;;;;;7.47;6.77;;;1.50;74.40;;;;;;5040252;28;20212;-85
2023/01/29 05:43:18;;;;;;;7.40;5.80;;;1.40;77.50;;;;;;5035749;28;20195;-86
2023/01/29 05:45:53;;;;;;;8.57;6.53;;;1.40;79.00;;;;;;5023233;28;20214;-85
2023/01/29 05:48:19;;;;;;;7.93;6.77;;;1.40;77.20;;;;;;5016479;28;20304;-85
2023/01/29 05:50:44;;;;;;;6.97;6.27;;;1.40;77.00;;;;;;5015803;28;20181;-86
2023/01/29 05:53:10;;;;;;;8.17;7.37;;;1.40;78.40;;;;;;5014840;28;20849;-86
2023/01/29 05:55:36;;;;;;;15.10;12.37;;;1.50;79.40;;;;;;5014590;28;20177;-88
2023/01/29 05:58:01;;;;;;;7.37;6.73;;;1.50;80.20;;;;;;5016538;28;20731;-84
2023/01/29 06:00:27;;;;;;;8.67;6.93;;;1.60;78.00;;;;;;5019141;28;20201;-86
2023/01/29 06:02:52;;;;;;;6.43;5.80;;;1.50;75.70;;;;;;5019728;28;20439;-84
2023/01/29 06:05:18;;;;;;;6.67;5.97;;;1.40;78.30;;;;;;5018486;28;20184;-86
2023/01/29 06:07:44;;;;;;;6.40;5.80;;;1.40;79.70;;;;;;5019417;28;20366;-85
2023/01/29 06:10:15;;;;;;;5.90;5.30;;;1.30;80.60;;;;;;5020104;28;20247;-86
2023/01/29 06:12:42;;;;;;;6.67;6.07;;;1.30;81.50;;;;;;5021453;28;20647;-86
2023/01/29 06:15:08;;;;;;;7.80;5.87;;;1.30;81.70;;;;;;5003739;28;20336;-87
2023/01/29 06:17:34;;;;;;;7.17;6.33;;;1.30;82.30;;;;;;5003026;28;20813;-84
2023/01/29 06:19:59;;;;;;;7.23;6.53;;;1.30;80.90;;;;;;5023870;28;20216;-88
2023/01/29 06:22:25;;;;;;;7.43;6.47;;;1.40;78.20;;;;;;5020941;28;20209;-86
2023/01/29 06:24:51;;;;;;;7.70;6.87;;;1.40;77.70;;;;;;5019420;28;20178;-87
2023/01/29 06:27:16;;;;;;;6.80;6.20;;;1.40;76.30;;;;;;5002572;28;20209;-86
2023/01/29 06:29:42;;;;;;;7.53;6.27;;;1.40;76.10;;;;;;5003284;28;20221;-86
2023/01/29 06:32:08;;;;;;;6.97;6.27;;;1.30;76.30;;;;;;5021968;28;20203;-86
2023/01/29 06:34:33;;;;;;;7.57;6.30;;;1.30;76.70;;;;;;5006449;28;20324;-86
2023/01/29 06:36:59;;;;;;;7.10;6.40;;;1.30;78.30;;;;;;5023324;28;20184;-86
2023/01/29 06:39:25;;;;;;;7.53;6.93;;;1.40;78.40;;;;;;5023292;28;20291;-85
2023/01/29 06:41:50;;;;;;;7.10;6.40;;;1.50;77.70;;;;;;5023512;28;20233;-86
2023/01/29 06:44:16;;;;;;;8.47;7.27;;;1.50;78.30;;;;;;5023451;28;20177;-86
2023/01/29 06:46:41;;;;;;;8.17;7.37;;;1.40;77.50;;;;;;5025804;28;20186;-88
2023/01/29 06:49:07;;;;;;;8.67;7.50;;;1.30;78.30;;;;;;5033241;28;20209;-86
2023/01/29 06:51:33;;;;;;;8.27;7.47;;;1.40;78.40;;;;;;5005070;28;20189;-85
2023/01/29 06:53:58;;;;;;;9.47;7.27;;;1.40;76.80;;;;;;5004745;28;20220;-85
2023/01/29 06:56:24;;;;;;;8.43;7.30;;;1.50;77.40;;;;;;5022343;28;20244;-85
2023/01/29 06:58:50;;;;;;;8.43;7.63;;;1.50;77.10;;;;;;5019914;28;20213;-86
2023/01/29 07:01:15;;;;;;;8.90;7.57;;;1.60;76.10;;;;;;5002210;28;20280;-86
2023/01/29 07:03:42;;;;;;;7.53;6.83;;;1.60;76.40;;;;;;5021557;28;20216;-85
2023/01/29 07:06:08;;;;;;;7.03;6.33;;;1.60;76.40;;;;;;5037592;28;20177;-85
2023/01/29 07:08:38;;;;;;;7.20;6.50;;;1.60;77.20;;;;;;5023850;28;20207;-85
2023/01/29 07:11:04;;;;;;;7.90;7.00;;;1.40;78.80;;;;;;5041768;28;20818;-86
2023/01/29 07:13:30;;;;;;;7.53;6.60;;;1.40;79.00;;;;;;5040692;28;20248;-87
2023/01/29 07:16:00;;;;;;;8.50;7.23;;;1.40;80.00;;;;;;5040858;28;20211;-87
2023/01/29 07:18:27;;;;;;;9.50;7.60;;;1.30;78.00;;;;;;5040819;28;20268;-86
2023/01/29 07:20:52;;;;;;;9.17;8.27;;;1.30;78.40;;;;;;5032958;28;20210;-86
2023/01/29 07:23:18;;;;;;;9.03;7.93;;;1.20;78.60;;;;;;5021659;28;20185;-89
2023/01/29 07:25:44;;;;;;;8.50;7.60;;;1.20;77.80;;;;;;5021830;28;20185;-88
2023/01/29 07:28:10;;;;;;;8.40;7.37;;;1.20;78.50;;;;;;5021450;28;20184;-86
2023/01/29 07:30:36;;;;;;;9.90;7.93;;;1.30;80.30;;;;;;5004796;28;20208;-86
2023/01/29 07:33:07;;;;;;;12.00;8.47;;;1.30;78.70;;;;;;5023777;28;20178;-87
2023/01/29 07:35:39;;;;;;;8.20;7.33;;;1.30;77.90;;;;;;5025563;28;20671;-85
2023/01/29 07:38:06;;;;;;;9.67;8.13;;;1.40;78.90;;;;;;5026630;28;20170;-87
2023/01/29 07:40:32;;;;;;;20.93;9.63;;;1.50;79.80;;;;;;5020276;28;20177;-85
2023/01/29 07:43:04;;;;;;;9.30;8.40;;;1.60;76.40;;;;;;5021116;28;20185;-87
2023/01/29 07:45:30;;;;;;;9.40;8.37;;;1.70;76.40;;;;;;5020702;28;20178;-90
2023/01/29 07:47:56;;;;;;;8.40;7.60;;;1.70;74.80;;;;;;5018561;28;20177;-87
2023/01/29 07:50:24;;;;;;;8.93;8.00;;;1.70;74.60;;;;;;5018376;28;20182;-88
2023/01/29 07:52:50;;;;;;;9.37;8.27;;;1.60;75.30;;;;;;5026702;28;20715;-87
2023/01/29 07:55:16;;;;;;;9.20;8.13;;;1.60;75.00;;;;;;5023394;28;20288;-84
2023/01/29 07:57:42;;;;;;;8.90;7.63;;;1.50;74.40;;;;;;5026237;28;20289;-87
2023/01/29 08:00:10;;;;;;;8.37;7.57;;;1.50;75.60;;;;;;5025039;28;20694;-86
2023/01/29 08:02:36;;;;;;;8.53;7.80;;;1.50;74.70;;;;;;5025134;28;20280;-87
2023/01/29 08:05:02;;;;;;;9.43;7.57;;;1.50;74.80;;;;;;5042496;28;20217;-86
2023/01/29 08:07:28;;;;;;;9.10;8.20;;;1.50;75.60;;;;;;5026662;28;20180;-86
2023/01/29 08:09:53;;;;;;;8.97;8.10;;;1.60;76.00;;;;;;5043730;28;20208;-86
2023/01/29 08:12:19;;;;;;;8.87;8.07;;;1.60;74.60;;;;;;5004489;28;20186;-85
2023/01/29 08:14:45;;;;;;;9.27;8.20;;;1.40;75.20;;;;;;5002233;28;20183;-87
2023/01/29 08:17:12;;;;;;;9.87;8.50;;;1.40;77.50;;;;;;5003983;28;20177;-87
2023/01/29 08:19:37;;;;;;;9.17;8.27;;;1.60;76.90;;;;;;5020833;28;20653;-87
2023/01/29 08:22:04;;;;;;;9.33;7.87;;;1.70;74.10;;;;;;5021877;28;20248;-87
2023/01/29 08:24:30;;;;;;;9.60;8.60;;;1.70;75.40;;;;;;5004770;28;20182;-86
2023/01/29 08:26:56;;;;;;;12.20;10.90;;;1.80;72.70;;;;;;5022333;28;20179;-86
2023/01/29 08:29:22;;;;;;;12.63;10.70;;;1.70;72.70;;;;;;5027851;28;20659;-87
2023/01/29 08:31:47;;;;;;;10.30;9.30;;;1.70;73.80;;;;;;5039533;28;20296;-86
2023/01/29 08:34:13;;;;;;;9.63;8.73;;;1.70;73.80;;;;;;5020595;28;20276;-87
2023/01/29 08:36:39;;;;;;;8.73;7.90;;;1.80;74.30;;;;;;5021136;28;20194;-87
2023/01/29 08:39:04;;;;;;;8.80;8.00;;;1.80;72.80;;;;;;5036295;28;20188;-87
2023/01/29 08:41:30;;;;;;;8.60;7.23;;;1.80;73.30;;;;;;5034600;28;20228;-87
2023/01/29 08:43:56;;;;;;;9.50;7.73;;;1.90;71.90;;;;;;5032395;28;20201;-91
2023/01/29 08:46:22;;;;;;;10.60;9.03;;;1.90;71.00;;;;;;5031896;28;20177;-87
2023/01/29 08:48:48;;;;;;;9.83;8.00;;;1.80;70.20;;;;;;5006729;28;20216;-90
2023/01/29 08:51:14;;;;;;;9.17;7.63;;;1.80;72.00;;;;;;5018556;28;20206;-88
2023/01/29 08:53:39;;;;;;;9.00;7.37;;;1.80;71.80;;;;;;4997510;28;20181;-89
2023/01/29 08:56:05;;;;;;;8.33;7.50;;;1.90;71.10;;;;;;5004847;28;20213;-88
2023/01/29 08:58:31;;;;;;;9.37;7.53;;;1.90;70.20;;;;;;5002670;28;20630;-88
2023/01/29 09:01:05;;;;;;;8.83;7.93;;;2.00;69.80;;;;;;5002578;28;20205;-88
2023/01/29 09:03:31;;;;;;;8.33;7.53;;;2.00;69.70;;;;;;5029138;28;20181;-88
2023/01/29 09:05:56;;;;;;;9.10;8.17;;;2.10;69.60;;;;;;5039369;28;20256;-89
2023/01/29 09:08:22;;;;;;;9.87;8.93;;;2.10;68.90;;;;;;5040153;28;20196;-88
2023/01/29 09:10:48;;;;;;;9.60;8.70;;;2.10;68.00;;;;;;5020883;28;20279;-88
2023/01/29 09:13:13;;;;;;;9.30;8.40;;;2.10;68.00;;;;;;5036676;28;20272;-87
2023/01/29 09:15:39;;;;;;;11.17;8.73;;;2.00;68.40;;;;;;5021420;28;20808;-87
2023/01/29 09:18:05;;;;;;;9.53;8.53;;;2.10;69.30;;;;;;5019382;28;20246;-88
2023/01/29 09:20:31;;;;;;;9.33;8.33;;;2.10;68.20;;;;;;5019249;28;20189;-88
2023/01/29 09:22:58;;;;;;;9.90;8.23;;;2.00;68.80;;;;;;5018967;28;20177;-88
2023/01/29 09:25:24;;;;;;;9.63;8.43;;;2.00;68.60;;;;;;5018725;28;20177;-87
2023/01/29 09:27:49;;;;;;;9.80;8.67;;;2.10;68.50;;;;;;5000892;28;20189;-88
2023/01/29 09:30:16;;;;;;;17.47;8.17;;;2.10;68.10;;;;;;5016980;28;20675;-88
2023/01/29 09:32:41;;;;;;;8.73;7.83;;;2.20;67.40;;;;;;4997836;28;20213;-89
2023/01/29 09:35:08;;;;;;;9.00;7.80;;;2.20;65.30;;;;;;5015144;28;20603;-88
2023/01/29 09:37:33;;;;;;;8.70;7.83;;;2.20;65.00;;;;;;5016732;28;20208;-88
2023/01/29 09:39:59;;;;;;;8.77;7.90;;;2.10;64.90;;;;;;5021871;28;20204;-88
2023/01/29 09:42:30;;;;;;;8.80;7.87;;;2.20;64.70;;;;;;5004080;28;20762;-87
2023/01/29 09:45:09;;;;;;;8.33;7.50;;;2.20;65.70;;;;;;5008833;28;20186;-89
2023/01/29 09:47:35;;;;;;;9.53;7.83;;;2.20;64.60;;;;;;4999715;28;20228;-88
2023/01/29 09:50:06;;;;;;;7.77;6.97;;;2.30;65.00;;;;;;4999636;28;20217;-89
2023/01/29 09:52:45;;;;;;;7.63;6.83;;;2.50;64.20;;;;;;5007243;28;20292;-88
2023/01/29 09:55:21;;;;;;;7.50;6.80;;;2.40;64.50;;;;;;5009211;28;20279;-89
2023/01/29 09:57:59;;;;;;;7.30;6.60;;;2.60;63.70;;;;;;5008490;28;20189;-89
2023/01/29 10:00:53;;;;;;;8.07;6.80;;;2.70;63.20;;;;;;5009766;28;20227;-89
2023/01/29 10:03:54;;;;;;;8.20;7.33;;;2.80;62.90;;;;;;5001244;28;20236;-86
2023/01/29 10:07:01;;;;;;;8.73;7.03;;;2.90;62.20;;;;;;5003155;28;20757;-86
2023/01/29 10:09:44;;;;;;;7.07;6.27;;;3.00;61.00;;;;;;4952170;28;20262;-85
2023/01/29 10:12:27;;;;;;;7.90;6.70;;;3.00;60.90;;;;;;4936488;28;20196;-87
2023/01/29 10:16:11;;;;;;;;;;;;;;;;;;;;;
2023/01/29 10:18:51;;;;;;;7.10;6.40;;;2.90;62.70;;;;;;5022641;22;20221;-88
2023/01/29 10:21:37;;;;;;;11.10;6.70;;;2.90;61.30;;;;;;4991017;28;20236;-91
2023/01/29 10:24:35;;;;;;;6.73;6.03;;;2.90;61.30;;;;;;5017029;28;20228;-89
2023/01/29 10:27:43;;;;;;;10.00;7.03;;;3.10;61.50;;;;;;5017999;28;20728;-89
2023/01/29 10:30:34;;;;;;;7.73;6.67;;;3.30;61.90;;;;;;5017513;28;20271;-90
2023/01/29 10:33:03;;;;;;;7.60;6.80;;;3.10;59.90;;;;;;5003740;28;20797;-89
2023/01/29 10:35:45;;;;;;;7.57;6.87;;;3.30;61.50;;;;;;5019236;28;20192;-88
2023/01/29 10:38:39;;;;;;;7.63;6.77;;;3.40;59.90;;;;;;5016997;28;20241;-88
2023/01/29 10:41:23;;;;;;;8.47;7.07;;;3.60;59.90;;;;;;5015324;28;20214;-90
2023/01/29 10:44:08;;;;;;;7.40;6.53;;;3.40;59.90;;;;;;5017605;28;20652;-88
2023/01/29 10:46:58;;;;;;;6.50;5.90;;;3.50;59.80;;;;;;5018281;28;20185;-90
2023/01/29 10:50:03;;;;;;;7.50;6.80;;;3.50;60.20;;;;;;5035479;28;20219;-89
2023/01/29 10:53:14;;;;;;;6.57;5.97;;;3.60;59.50;;;;;;5026255;28;20215;-89
2023/01/29 10:55:54;;;;;;;5.93;5.33;;;3.50;59.40;;;;;;5031712;28;20215;-88
2023/01/29 10:58:38;;;;;;;6.20;5.50;;;3.40;60.20;;;;;;5026263;28;20181;-91
2023/01/29 11:01:04;;;;;;;6.00;5.40;;;3.40;59.70;;;;;;5025206;28;20213;-89
2023/01/29 11:03:32;;;;;;;5.70;5.23;;;3.50;60.20;;;;;;5021863;28;20205;-88
2023/01/29 11:06:11;;;;;;;5.37;4.87;;;3.30;60.60;;;;;;5022039;28;20192;-88
2023/01/29 11:09:04;;;;;;;6.17;5.57;;;3.30;62.00;;;;;;5025109;28;20219;-88
2023/01/29 11:12:07;;;;;;;5.67;4.60;;;3.20;61.80;;;;;;5025145;28;20197;-89
2023/01/29 11:14:51;;;;;;;4.93;4.43;;;3.40;60.50;;;;;;5022483;28;20212;-90
2023/01/29 11:17:27;;;;;;;5.07;4.40;;;3.30;60.40;;;;;;5007092;28;20189;-90
2023/01/29 11:19:54;;;;;;;5.07;4.60;;;3.50;58.90;;;;;;5022955;28;20224;-89
2023/01/29 11:22:31;;;;;;;5.47;4.97;;;3.50;58.70;;;;;;5022028;28;20236;-88
2023/01/29 11:25:11;;;;;;;5.10;4.70;;;3.50;58.60;;;;;;5024760;28;20218;-89
2023/01/29 11:27:51;;;;;;;4.50;4.10;;;3.60;59.70;;;;;;5008220;28;20199;-91
2023/01/29 11:30:26;;;;;;;5.60;5.10;;;3.80;58.20;;;;;;5030829;28;20697;-90
2023/01/29 11:33:19;;;;;;;5.10;4.57;;;3.90;57.70;;;;;;5028202;28;20192;-90
2023/01/29 11:35:45;;;;;;;5.07;4.60;;;4.00;57.70;;;;;;5028000;28;20181;-90
2023/01/29 11:38:25;;;;;;;4.37;4.00;;;4.00;57.30;;;;;;5024311;28;20188;-90
2023/01/29 11:40:52;;;;;;;5.57;4.90;;;4.10;58.20;;;;;;5025395;28;20212;-90
2023/01/29 11:43:31;;;;;;;5.03;4.63;;;4.30;57.10;;;;;;5029989;28;20215;-90
2023/01/29 11:46:20;;;;;;;5.60;5.10;;;4.30;56.70;;;;;;5029708;28;20181;-90
2023/01/29 11:49:32;;;;;;;5.57;4.90;;;4.00;57.10;;;;;;5030375;28;20201;-90
2023/01/29 11:52:12;;;;;;;5.27;4.87;;;4.00;58.20;;;;;;4973758;28;20374;-89
2023/01/29 11:55:04;;;;;;;6.00;5.40;;;4.30;57.10;;;;;;5017786;28;20192;-90
2023/01/29 11:58:00;;;;;;;5.93;5.37;;;4.40;57.20;;;;;;5028481;28;20192;-89
2023/01/29 12:00:34;;;;;;;6.13;5.53;;;4.40;57.20;;;;;;5024735;28;20308;-89
2023/01/29 12:03:44;;;;;;;7.27;5.47;;;4.50;56.30;;;;;;5028796;28;20188;-90
2023/01/29 12:06:25;;;;;;;5.63;5.13;;;4.50;55.90;;;;;;5003803;28;20205;-89
2023/01/29 12:08:56;;;;;;;6.50;5.77;;;4.80;56.60;;;;;;5030437;28;20212;-88
2023/01/29 12:11:41;;;;;;;5.77;5.27;;;4.90;56.20;;;;;;5018421;28;20204;-89
2023/01/29 12:14:37;;;;;;;5.50;5.00;;;4.60;57.70;;;;;;5027971;28;20188;-90
2023/01/29 12:17:18;;;;;;;6.03;5.43;;;5.10;54.00;;;;;;5015235;28;20201;-90
2023/01/29 12:19:57;;;;;;;5.80;5.20;;;5.20;55.00;;;;;;5013133;28;20240;-90
2023/01/29 12:22:49;;;;;;;4.97;4.57;;;5.20;54.80;;;;;;5037328;28;20208;-90
2023/01/29 12:25:34;;;;;;;;;;;;;;;;;;;;;
2023/01/29 12:28:56;;;;;;;5.33;4.47;;;5.00;53.10;;;;;;5024714;28;20265;-89
2023/01/29 12:31:59;;;;;;;4.93;4.53;;;5.10;54.20;;;;;;5025647;28;20696;-90
2023/01/29 12:35:04;;;;;;;5.83;5.30;;;5.00;55.20;;;;;;5024476;28;20197;-89
2023/01/29 12:37:57;;;;;;;5.83;5.23;;;5.10;54.40;;;;;;5025548;28;20183;-89
2023/01/29 12:40:28;;;;;;;6.97;5.33;;;4.90;54.70;;;;;;5030371;28;20213;-90
2023/01/29 12:43:15;;;;;;;5.03;4.63;;;4.90;56.60;;;;;;5025566;28;20197;-89
2023/01/29 12:45:42;;;;;;;7.73;4.87;;;5.30;53.90;;;;;;5013912;28;20299;-89
2023/01/29 12:48:23;;;;;;;5.70;5.10;;;5.60;52.50;;;;;;5010810;28;22003;-89
2023/01/29 12:51:07;;;;;;;;;;;;;;;;;;;;;
2023/01/29 12:53:59;;;;;;;6.53;6.03;;;6.00;53.00;;;;;;5037045;28;20216;-90
2023/01/29 12:57:27;;;;;;;6.87;6.27;;;5.90;51.60;;;;;;5027154;28;20197;-90
2023/01/29 13:00:01;;;;;;;6.17;5.67;;;6.20;50.80;;;;;;5006664;28;20287;-90
2023/01/29 13:02:47;;;;;;;22.53;17.20;;;6.10;51.00;;;;;;5020220;28;20299;-89
2023/01/29 13:05:45;;;;;;;13.67;12.27;;;6.00;51.30;;;;;;5031168;28;20187;-89
2023/01/29 13:08:54;;;;;;;;;;;;;;;;;;;;;
2023/01/29 13:11:32;;;;;;;5.73;5.23;;;5.20;53.80;;;;;;5029429;28;20735;-90
2023/01/29 13:14:50;;;;;;;5.70;5.20;;;4.70;57.50;;;;;;5028583;28;20184;-89
2023/01/29 13:17:19;;;;;;;5.40;4.90;;;4.70;57.60;;;;;;5012784;28;20216;-91
2023/01/29 13:19:49;;;;;;;5.60;5.10;;;4.20;58.00;;;;;;5034316;28;20224;-91
2023/01/29 13:22:58;;;;;;;5.73;5.00;;;4.70;57.90;;;;;;5033580;28;20224;-91
2023/01/29 13:25:26;;;;;;;12.90;11.10;;;5.00;55.40;;;;;;5029992;28;20197;-93
2023/01/29 13:27:53;;;;;;;8.60;6.50;;;5.20;55.60;;;;;;5028821;28;20239;-90
2023/01/29 13:30:27;;;;;;;9.37;8.40;;;5.30;54.30;;;;;;5040336;28;20205;-90
2023/01/29 13:33:07;;;;;;;7.40;6.70;;;5.40;54.10;;;;;;5029807;28;20556;-91
2023/01/29 13:35:44;;;;;;;8.30;7.50;;;5.40;54.60;;;;;;5029774;28;20807;-91
2023/01/29 13:38:26;;;;;;;5.80;5.30;;;5.80;53.30;;;;;;5021672;28;20181;-90
2023/01/29 13:40:55;;;;;;;5.77;5.23;;;6.00;51.60;;;;;;5032930;28;20440;-90
2023/01/29 13:43:26;;;;;;;5.13;4.63;;;6.00;51.90;;;;;;5009209;28;20193;-92
2023/01/29 13:45:53;;;;;;;10.43;5.80;;;5.80;51.70;;;;;;5032553;28;20184;-91
2023/01/29 13:48:27;;;;;;;5.83;4.63;;;5.80;53.10;;;;;;5030212;28;20188;-89
2023/01/29 13:51:21;;;;;;;5.10;4.70;;;6.00;50.40;;;;;;5018978;28;20244;-89
2023/01/29 13:54:02;;;;;;;5.77;5.27;;;6.00;50.60;;;;;;5024207;28;20199;-91
2023/01/29 13:56:49;;;;;;;7.07;5.60;;;5.50;52.90;;;;;;5007219;28;20302;-91
2023/01/29 13:59:56;;;;;;;7.73;5.53;;;5.20;54.50;;;;;;5022582;28;21006;-91
2023/01/29 14:03:03;;;;;;;5.33;4.83;;;5.00;54.40;;;;;;5028027;28;20256;-90
2023/01/29 14:06:03;;;;;;;6.00;5.50;;;4.30;58.00;;;;;;5013075;28;20192;-91
2023/01/29 14:08:56;;;;;;;6.17;5.57;;;4.00;59.90;;;;;;5031499;28;20197;-90
2023/01/29 14:11:58;;;;;;;6.27;5.67;;;4.40;57.70;;;;;;5033559;28;20189;-92
2023/01/29 14:15:12;;;;;;;7.47;6.77;;;4.80;56.30;;;;;;5034585;28;20543;-91